Terminal Aerodrome Forecast
Issued by NWS Memphis, TN

Home | Current Version | Previous Version | Text Only | Print | Product List | Glossary On
Versions: 1 2 3 4 5 6 7 8 9 10 11 12 13 14 15 16 17 18 19
000
FTUS44 KMEG 311738
TAFJBR
TAF
KJBR 311738Z 3118/0118 12005KT P6SM BKN120 OVC250
     FM010400 13005KT P6SM OVC100
     FM010900 18010KT P6SM VCSH OVC050
     FM011200 18015G22KT 5SM -RA BR OVC015
     FM011400 19015G22KT 3SM -RA BR OVC009=

USA.gov is the U.S. government's official web portal to all federal, state and local government web resources and services.